createdAt,value
2018-04-12T00:01:06.778Z,11.05
2018-04-12T00:03:34.243Z,11.12
2018-04-12T00:06:01.730Z,10.75
2018-04-12T00:08:29.183Z,10.45
2018-04-12T00:10:56.644Z,10.18
2018-04-12T00:13:24.118Z,10.52
2018-04-12T00:15:52.346Z,10.27
2018-04-12T00:18:19.808Z,11.30
2018-04-12T00:20:47.278Z,10.70
2018-04-12T00:23:14.734Z,10.15
2018-04-12T00:25:42.185Z,9.55
2018-04-12T00:28:09.637Z,10.43
2018-04-12T00:30:37.112Z,9.65
2018-04-12T00:33:04.577Z,11.15
2018-04-12T00:35:32.033Z,11.05
2018-04-12T00:37:59.493Z,10.52
2018-04-12T00:40:26.972Z,11.20
2018-04-12T00:42:55.201Z,10.82
2018-04-12T00:45:22.672Z,11.80
2018-04-12T00:47:50.157Z,11.12
2018-04-12T00:50:17.612Z,11.02
2018-04-12T00:52:45.084Z,11.90
2018-04-12T00:55:12.536Z,11.43
2018-04-12T00:57:39.992Z,12.07
2018-04-12T01:00:07.435Z,11.85
2018-04-12T01:02:35.660Z,12.37
2018-04-12T01:05:03.156Z,11.27
2018-04-12T01:07:30.614Z,10.52
2018-04-12T01:09:58.072Z,11.50
2018-04-12T01:12:25.655Z,10.60
2018-04-12T01:14:53.882Z,10.90
2018-04-12T01:17:21.348Z,11.35
2018-04-12T01:19:48.806Z,10.63
2018-04-12T01:22:16.289Z,10.52
2018-04-12T01:24:44.523Z,9.88
2018-04-12T01:27:11.976Z,10.77
2018-04-12T01:29:39.436Z,9.85
2018-04-12T01:32:06.909Z,10.55
2018-04-12T01:34:34.356Z,11.27
2018-04-12T01:37:02.190Z,10.13
2018-04-12T01:39:29.697Z,9.88
2018-04-12T01:41:57.162Z,9.35
2018-04-12T01:44:24.616Z,11.30
2018-04-12T01:46:52.073Z,10.90
2018-04-12T01:49:19.520Z,10.88
2018-04-12T01:51:46.972Z,10.27
2018-04-12T01:54:14.446Z,9.80
2018-04-12T01:56:41.891Z,11.18
2018-04-12T01:59:09.358Z,10.70
2018-04-12T02:01:37.586Z,11.23
2018-04-12T02:04:05.067Z,10.45
2018-04-12T02:06:32.533Z,10.45
2018-04-12T02:09:00.000Z,11.00
2018-04-12T02:11:27.456Z,10.35
2018-04-12T02:13:54.972Z,13.15
2018-04-12T02:16:22.436Z,13.25
2018-04-12T02:18:49.914Z,11.18
2018-04-12T02:21:17.370Z,11.95
2018-04-12T02:23:44.856Z,11.48
2018-04-12T02:26:13.073Z,12.18
2018-04-12T02:28:40.532Z,11.45
2018-04-12T02:31:08.000Z,11.45
2018-04-12T02:33:35.465Z,13.90
2018-04-12T02:36:02.967Z,13.80
2018-04-12T02:38:31.188Z,12.80
2018-04-12T02:40:58.644Z,12.27
2018-04-12T02:43:26.123Z,12.88
2018-04-12T02:45:53.572Z,13.95
2018-04-12T02:48:21.041Z,13.60
2018-04-12T02:50:48.514Z,13.25
2018-04-12T02:53:16.740Z,13.55
2018-04-12T02:55:44.197Z,14.80
2018-04-12T02:58:11.657Z,12.75
2018-04-12T03:00:39.116Z,12.30
2018-04-12T03:03:06.591Z,14.43
2018-04-12T03:05:34.044Z,12.90
2018-04-12T03:08:01.532Z,13.52
2018-04-12T03:10:29.771Z,17.40
2018-04-12T03:12:57.221Z,13.77
2018-04-12T03:15:24.679Z,14.40
2018-04-12T03:17:52.200Z,15.25
2018-04-12T03:20:19.661Z,13.75
2018-04-12T03:22:47.116Z,15.60
2018-04-12T03:25:14.572Z,17.10
2018-04-12T03:27:42.072Z,15.20
2018-04-12T03:30:09.540Z,14.80
2018-04-12T03:32:37.016Z,17.35
2018-04-12T03:35:04.472Z,16.20
2018-04-12T03:37:31.932Z,16.27
2018-04-12T03:39:59.397Z,16.98
2018-04-12T03:42:27.615Z,19.20
2018-04-12T03:44:55.069Z,16.85
2018-04-12T03:47:22.524Z,17.08
2018-04-12T03:49:49.992Z,16.60
2018-04-12T03:52:17.446Z,15.32
2018-04-12T03:54:44.909Z,18.65
2018-04-12T03:57:12.356Z,15.88
2018-04-12T03:59:39.810Z,17.23
2018-04-12T04:02:07.268Z,17.52
2018-04-12T04:04:34.732Z,18.33
2018-04-12T04:07:02.185Z,18.15
2018-04-12T04:09:29.647Z,18.37
2018-04-12T04:11:57.100Z,17.95
2018-04-12T04:14:36.231Z,18.85
2018-04-12T04:17:15.427Z,17.65
2018-04-12T04:19:55.325Z,18.85
2018-04-12T04:22:23.602Z,18.60
2018-04-12T04:24:51.061Z,18.23
2018-04-12T04:27:18.513Z,18.27
2018-04-12T04:29:45.980Z,18.90
2018-04-12T04:32:13.456Z,19.00
2018-04-12T04:34:40.916Z,21.77
2018-04-12T04:37:08.368Z,20.40
2018-04-12T04:39:35.817Z,18.12
2018-04-12T04:42:03.268Z,21.35
2018-04-12T04:44:30.715Z,20.85
2018-04-12T04:46:58.945Z,21.67
2018-04-12T04:49:26.404Z,19.77
2018-04-12T04:51:53.874Z,20.88
2018-04-12T04:54:21.352Z,19.35
2018-04-12T04:56:48.816Z,20.77
2018-04-12T04:59:16.288Z,17.70
2018-04-12T05:01:43.743Z,21.50
2018-04-12T05:04:11.219Z,18.87
2018-04-12T05:06:38.669Z,20.75
2018-04-12T05:09:06.129Z,19.60
2018-04-12T05:11:33.586Z,19.87
2018-04-12T05:14:01.045Z,17.25
2018-04-12T05:16:28.492Z,18.75
2018-04-12T05:18:55.947Z,18.15
2018-04-12T05:21:23.407Z,19.42
2018-04-12T05:23:50.864Z,18.02
2018-04-12T05:26:18.336Z,18.60
2018-04-12T05:28:50.216Z,19.42
2018-04-12T05:31:17.693Z,20.42
2018-04-12T05:33:45.157Z,18.58
2018-04-12T05:36:12.621Z,18.98
2018-04-12T05:38:40.095Z,18.10
2018-04-12T05:41:07.553Z,20.25
2018-04-12T05:43:35.000Z,18.62
2018-04-12T05:46:02.567Z,18.15
2018-04-12T05:48:30.051Z,21.20
2018-04-12T05:50:57.820Z,18.37
2018-04-12T05:53:26.091Z,18.08
2018-04-12T05:55:54.361Z,19.60
2018-04-12T05:58:22.592Z,17.98
2018-04-12T06:00:50.057Z,18.40
2018-04-12T06:03:17.567Z,19.20
2018-04-12T06:05:45.025Z,18.42
2018-04-12T06:08:12.546Z,17.95
2018-04-12T06:10:40.004Z,18.27
2018-04-12T06:13:07.480Z,18.58
2018-04-12T06:15:35.737Z,18.65
2018-04-12T06:18:03.209Z,19.00
2018-04-12T06:20:30.714Z,18.90
2018-04-12T06:22:58.803Z,18.70
2018-04-12T06:25:26.912Z,18.83
2018-04-12T06:27:55.161Z,18.95
2018-04-12T06:30:22.624Z,20.55
2018-04-12T06:32:50.155Z,20.15
2018-04-12T06:35:17.607Z,18.37
2018-04-12T06:37:45.064Z,20.37
2018-04-12T06:40:12.524Z,19.95
2018-04-12T06:42:40.010Z,19.08
2018-04-12T06:45:07.462Z,19.90
2018-04-12T06:47:34.945Z,20.50
2018-04-12T06:50:02.398Z,19.85
2018-04-12T06:52:29.999Z,20.58
2018-04-12T06:54:57.446Z,20.33
2018-04-12T06:57:24.923Z,19.75
2018-04-12T06:59:52.380Z,21.05
2018-04-12T07:02:19.843Z,20.58
2018-04-12T07:04:47.291Z,20.27
2018-04-12T07:07:14.796Z,19.60
2018-04-12T07:09:42.249Z,20.95
2018-04-12T07:12:09.695Z,21.02
2018-04-12T07:14:37.169Z,20.42
2018-04-12T07:17:05.394Z,20.85
2018-04-12T07:19:32.876Z,20.83
2018-04-12T07:22:00.333Z,22.15
2018-04-12T07:24:27.785Z,20.37
2018-04-12T07:26:55.258Z,20.92
2018-04-12T07:29:22.705Z,20.05
2018-04-12T07:31:50.168Z,19.02
2018-04-12T07:34:17.629Z,21.50
2018-04-12T07:36:45.092Z,21.40
2018-04-12T07:39:12.553Z,21.25
2018-04-12T07:41:40.012Z,21.90
2018-04-12T07:44:07.466Z,21.87
2018-04-12T07:46:34.918Z,21.80
2018-04-12T07:49:02.387Z,21.55
2018-04-12T07:51:29.858Z,22.20
2018-04-12T07:53:58.069Z,22.23
2018-04-12T07:56:25.527Z,23.10
2018-04-12T07:58:52.981Z,22.85
2018-04-12T08:01:20.432Z,23.70
2018-04-12T08:03:47.895Z,23.27
2018-04-12T08:06:15.656Z,23.40
2018-04-12T08:08:43.105Z,23.60
2018-04-12T08:11:10.576Z,22.45
2018-04-12T08:13:38.024Z,22.58
2018-04-12T08:16:05.490Z,23.73
2018-04-12T08:18:32.967Z,23.87
2018-04-12T08:21:00.430Z,24.30
2018-04-12T08:23:27.886Z,24.65
2018-04-12T08:25:55.386Z,23.17
2018-04-12T08:28:22.827Z,25.23
2018-04-12T08:30:50.323Z,24.10
2018-04-12T08:33:17.781Z,24.87
2018-04-12T08:35:45.250Z,25.75
2018-04-12T08:38:12.716Z,22.23
2018-04-12T08:40:40.172Z,22.80
2018-04-12T08:43:07.638Z,24.55
2018-04-12T08:45:35.099Z,23.40
2018-04-12T08:48:02.568Z,25.02
2018-04-12T08:50:30.032Z,24.70
2018-04-12T08:52:58.300Z,24.83
2018-04-12T08:55:26.561Z,25.17
2018-04-12T08:57:54.112Z,24.50
2018-04-12T09:00:21.604Z,27.33
2018-04-12T09:02:49.847Z,25.37
2018-04-12T09:05:17.307Z,25.92
2018-04-12T09:07:44.784Z,23.85
2018-04-12T09:10:12.244Z,23.08
2018-04-12T09:12:40.490Z,25.90
2018-04-12T09:15:07.949Z,25.80
2018-04-12T09:17:35.411Z,25.75
2018-04-12T09:20:02.880Z,23.92
2018-04-12T09:22:30.337Z,27.35
2018-04-12T09:24:57.812Z,25.20
2018-04-12T09:27:26.073Z,25.10
2018-04-12T09:29:53.545Z,26.30
2018-04-12T09:32:21.776Z,24.30
2018-04-12T09:34:49.256Z,27.15
2018-04-12T09:37:16.731Z,26.05
2018-04-12T09:39:44.392Z,27.65
2018-04-12T09:42:12.622Z,26.37
2018-04-12T09:44:40.086Z,27.80
2018-04-12T09:47:07.543Z,26.25
2018-04-12T09:49:35.017Z,27.08
2018-04-12T09:52:02.491Z,28.90
2018-04-12T09:54:29.955Z,26.02
2018-04-12T09:56:57.408Z,26.20
2018-04-12T09:59:24.882Z,26.65
2018-04-12T10:01:54.992Z,24.95
2018-04-12T10:04:27.161Z,27.40
2018-04-12T10:07:09.517Z,26.55
2018-04-12T10:09:37.005Z,26.42
2018-04-12T10:12:04.470Z,26.20
2018-04-12T10:14:31.961Z,25.55
2018-04-12T10:16:59.442Z,27.05
2018-04-12T10:19:26.932Z,26.17
2018-04-12T10:21:54.398Z,26.12
2018-04-12T10:24:21.869Z,25.65
2018-04-12T10:26:49.320Z,27.48
2018-04-12T10:29:17.545Z,27.10
2018-04-12T10:31:45.008Z,27.17
2018-04-12T10:34:12.487Z,24.42
2018-04-12T10:36:39.952Z,27.27
2018-04-12T10:39:07.408Z,24.70
2018-04-12T10:41:34.911Z,27.20
2018-04-12T10:44:03.135Z,25.45
2018-04-12T10:46:30.604Z,24.58
2018-04-12T10:48:58.847Z,25.40
2018-04-12T10:51:26.349Z,25.67
2018-04-12T10:53:53.826Z,26.50
2018-04-12T10:56:21.294Z,25.00
2018-04-12T10:58:48.757Z,25.90
2018-04-12T11:01:16.227Z,26.15
2018-04-12T11:03:43.729Z,26.73
2018-04-12T11:06:11.230Z,27.40
2018-04-12T11:08:38.753Z,25.17
2018-04-12T11:11:06.314Z,26.37
2018-04-12T11:13:33.966Z,26.20
2018-04-12T11:16:01.489Z,24.75
2018-04-12T11:18:29.045Z,27.42
2018-04-12T11:20:57.249Z,23.58
2018-04-12T11:23:24.753Z,26.27
2018-04-12T11:25:52.223Z,24.80
2018-04-12T11:28:19.731Z,28.27
2018-04-12T11:30:47.964Z,25.60
2018-04-12T11:33:16.224Z,27.50
2018-04-12T11:35:43.716Z,27.15
2018-04-12T11:38:11.190Z,26.05
2018-04-12T11:40:38.659Z,27.70
2018-04-12T11:43:07.338Z,26.52
2018-04-12T11:45:34.831Z,24.92
2018-04-12T11:48:02.307Z,27.37
2018-04-12T11:50:29.833Z,27.15
2018-04-12T11:52:57.374Z,26.58
2018-04-12T11:55:24.845Z,27.45
2018-04-12T11:57:52.322Z,25.70
2018-04-12T12:00:19.812Z,28.35
2018-04-12T12:02:47.387Z,26.73
2018-04-12T12:05:15.721Z,25.83
2018-04-12T12:07:43.225Z,27.75
2018-04-12T12:10:10.808Z,26.20
2018-04-12T12:12:38.308Z,27.27
2018-04-12T12:15:05.809Z,24.75
2018-04-12T12:17:34.064Z,26.90
2018-04-12T12:20:01.563Z,27.05
2018-04-12T12:22:29.050Z,27.35
2018-04-12T12:24:56.578Z,26.58
2018-04-12T12:27:24.191Z,27.23
2018-04-12T12:29:51.676Z,27.80
2018-04-12T12:32:20.012Z,27.87
2018-04-12T12:34:47.515Z,28.20
2018-04-12T12:37:15.126Z,29.00
2018-04-12T12:39:42.645Z,27.05
2018-04-12T12:42:10.280Z,26.92
2018-04-12T12:44:37.856Z,25.90
2018-04-12T12:47:05.402Z,29.10
2018-04-12T12:49:32.913Z,27.83
2018-04-12T12:52:00.422Z,28.65
2018-04-12T12:54:28.677Z,27.80
2018-04-12T12:56:56.134Z,27.83
2018-04-12T12:59:23.748Z,28.10
2018-04-12T13:01:51.273Z,27.33
2018-04-12T13:04:18.799Z,26.87
2018-04-12T13:06:46.541Z,27.45
2018-04-12T13:09:14.061Z,27.05
2018-04-12T13:11:42.281Z,27.45
2018-04-12T13:14:09.757Z,28.17
2018-04-12T13:16:37.325Z,28.20
2018-04-12T13:19:04.802Z,26.12
2018-04-12T13:21:32.289Z,26.77
2018-04-12T13:23:59.773Z,28.12
2018-04-12T13:26:27.300Z,28.30
2018-04-12T13:28:54.913Z,28.35
2018-04-12T13:31:22.377Z,27.95
2018-04-12T13:33:49.833Z,26.08
2018-04-12T13:36:17.312Z,24.98
2018-04-12T13:38:45.741Z,26.33
2018-04-12T13:41:13.249Z,26.35
2018-04-12T13:43:40.791Z,25.92
2018-04-12T13:46:08.257Z,26.10
2018-04-12T13:48:36.530Z,26.45
2018-04-12T13:51:04.947Z,27.95
2018-04-12T13:53:32.597Z,26.95
2018-04-12T13:56:00.101Z,27.37
2018-04-12T13:58:27.572Z,25.23
2018-04-12T14:00:55.066Z,27.13
2018-04-12T14:03:23.311Z,27.35
2018-04-12T14:05:50.792Z,27.00
2018-04-12T14:08:19.041Z,27.42
2018-04-12T14:10:46.549Z,25.20
2018-04-12T14:13:14.844Z,27.70
2018-04-12T14:15:42.417Z,26.98
2018-04-12T14:18:09.931Z,27.65
2018-04-12T14:20:37.427Z,27.75
2018-04-12T14:23:04.977Z,28.30
2018-04-12T14:25:32.495Z,25.65
2018-04-12T14:27:59.933Z,25.17
2018-04-12T14:30:27.414Z,27.92
2018-04-12T14:32:55.683Z,27.20
2018-04-12T14:35:23.157Z,25.50
2018-04-12T14:37:50.647Z,26.20
2018-04-12T14:40:18.160Z,24.80
2018-04-12T14:42:45.632Z,26.70
2018-04-12T14:45:13.126Z,25.10
2018-04-12T14:47:40.600Z,26.85
2018-04-12T14:50:08.068Z,25.37
2018-04-12T14:52:35.545Z,25.45
2018-04-12T14:55:03.033Z,26.98
2018-04-12T14:57:30.635Z,26.17
2018-04-12T14:59:58.121Z,26.12
2018-04-12T15:02:25.710Z,26.37
2018-04-12T15:04:53.230Z,25.83
2018-04-12T15:07:20.717Z,24.98
2018-04-12T15:09:48.250Z,26.55
2018-04-12T15:12:15.765Z,25.85
2018-04-12T15:14:43.278Z,28.20
2018-04-12T15:17:10.750Z,26.83
2018-04-12T15:19:38.240Z,27.08
2018-04-12T15:22:05.724Z,27.48
2018-04-12T15:24:33.973Z,27.33
2018-04-12T15:27:01.442Z,27.87
2018-04-12T15:29:28.918Z,27.10
2018-04-12T15:31:56.399Z,27.20
2018-04-12T15:34:23.876Z,26.58
2018-04-12T15:36:51.344Z,29.12
2018-04-12T15:39:18.831Z,27.42
2018-04-12T15:41:46.307Z,27.45
2018-04-12T15:44:14.548Z,27.62
2018-04-12T15:46:42.038Z,28.87
2018-04-12T15:49:09.530Z,28.17
2018-04-12T15:51:37.036Z,28.80
2018-04-12T15:54:04.575Z,26.60
2018-04-12T15:56:32.041Z,26.90
2018-04-12T15:58:59.541Z,28.25
2018-04-12T16:01:27.898Z,29.00
2018-04-12T16:03:55.425Z,28.48
2018-04-12T16:06:22.918Z,29.37
2018-04-12T16:08:51.177Z,30.35
2018-04-12T16:11:18.665Z,30.05
2018-04-12T16:13:46.144Z,27.55
2018-04-12T16:16:13.652Z,28.73
2018-04-12T16:18:41.132Z,28.30
2018-04-12T16:21:08.625Z,29.52
2018-04-12T16:23:36.084Z,28.30
2018-04-12T16:26:03.599Z,27.90
2018-04-12T16:28:31.870Z,27.05
2018-04-12T16:30:59.325Z,26.98
2018-04-12T16:33:26.817Z,27.15
2018-04-12T16:35:54.294Z,27.33
2018-04-12T16:38:21.790Z,28.95
2018-04-12T16:40:49.263Z,27.67
2018-04-12T16:43:17.505Z,29.23
2018-04-12T16:45:44.975Z,29.25
2018-04-12T16:48:13.232Z,29.40
2018-04-12T16:50:40.747Z,26.62
2018-04-12T16:53:08.219Z,28.35
2018-04-12T16:55:35.720Z,28.77
2018-04-12T16:58:03.237Z,29.60
2018-04-12T17:00:30.724Z,28.60
2018-04-12T17:02:58.203Z,30.50
2018-04-12T17:05:25.690Z,26.70
2018-04-12T17:07:53.201Z,27.92
2018-04-12T17:10:20.687Z,29.77
2018-04-12T17:12:48.908Z,27.13
2018-04-12T17:15:16.407Z,28.85
2018-04-12T17:17:43.870Z,27.50
2018-04-12T17:20:11.361Z,27.55
2018-04-12T17:22:38.846Z,28.35
2018-04-12T17:25:06.321Z,27.25
2018-04-12T17:27:33.804Z,27.75
2018-04-12T17:30:01.301Z,26.80
2018-04-12T17:32:28.797Z,25.75
2018-04-12T17:34:56.294Z,25.83
2018-04-12T17:37:24.537Z,25.23
2018-04-12T17:39:52.005Z,26.87
2018-04-12T17:42:19.482Z,25.23
2018-04-12T17:44:46.972Z,27.73
2018-04-12T17:47:14.468Z,27.25
2018-04-12T17:49:41.943Z,25.12
2018-04-12T17:52:10.183Z,26.25
2018-04-12T17:54:37.756Z,24.33
2018-04-12T17:57:05.256Z,24.98
2018-04-12T17:59:32.736Z,23.62
2018-04-12T18:02:00.223Z,25.05
2018-04-12T18:04:27.712Z,25.10
2018-04-12T18:06:55.281Z,23.40
2018-04-12T18:09:22.741Z,24.17
2018-04-12T18:11:50.233Z,23.90
2018-04-12T18:14:17.709Z,23.10
2018-04-12T18:16:45.242Z,24.87
2018-04-12T18:19:12.804Z,23.75
2018-04-12T18:21:40.293Z,24.35
2018-04-12T18:24:07.771Z,23.75
2018-04-12T18:26:35.280Z,23.80
2018-04-12T18:29:02.752Z,22.58
2018-04-12T18:31:30.228Z,23.35
2018-04-12T18:33:57.696Z,25.37
2018-04-12T18:36:25.169Z,23.87
2018-04-12T18:38:52.663Z,23.52
2018-04-12T18:41:21.056Z,22.87
2018-04-12T18:43:48.520Z,23.98
2018-04-12T18:46:16.011Z,23.17
2018-04-12T18:48:43.476Z,22.95
2018-04-12T18:51:11.732Z,24.48
2018-04-12T18:53:39.247Z,24.00
2018-04-12T18:56:06.741Z,22.90
2018-04-12T18:58:34.259Z,23.48
2018-04-12T19:01:01.755Z,22.62
2018-04-12T19:03:29.238Z,21.27
2018-04-12T19:05:57.484Z,22.10
2018-04-12T19:08:25.165Z,23.42
2018-04-12T19:10:52.645Z,22.58
2018-04-12T19:13:20.100Z,23.55
2018-04-12T19:15:47.566Z,22.92
2018-04-12T19:18:15.690Z,22.95
2018-04-12T19:20:44.455Z,22.10
2018-04-12T19:23:12.028Z,20.77
2018-04-12T19:25:39.488Z,21.75
2018-04-12T19:28:06.985Z,21.75
2018-04-12T19:30:34.441Z,24.45
2018-04-12T19:33:02.775Z,22.58
2018-04-12T19:35:30.252Z,23.58
2018-04-12T19:37:57.748Z,23.12
2018-04-12T19:40:25.200Z,22.35
2018-04-12T19:42:52.671Z,21.42
2018-04-12T19:45:20.131Z,23.77
2018-04-12T19:47:47.627Z,22.67
2018-04-12T19:50:15.209Z,24.90
2018-04-12T19:52:43.568Z,22.40
2018-04-12T19:55:11.076Z,24.42
2018-04-12T19:57:38.605Z,22.83
2018-04-12T20:00:06.124Z,21.20
2018-04-12T20:02:33.585Z,22.85
2018-04-12T20:05:01.393Z,22.13
2018-04-12T20:07:29.716Z,21.67
2018-04-12T20:09:57.265Z,24.17
2018-04-12T20:12:24.737Z,23.23
2018-04-12T20:14:52.184Z,22.65
2018-04-12T20:17:19.696Z,24.42
2018-04-12T20:19:48.023Z,22.02
2018-04-12T20:22:15.496Z,22.65
2018-04-12T20:24:42.970Z,21.42
2018-04-12T20:27:10.449Z,24.23
2018-04-12T20:29:37.924Z,21.48
2018-04-12T20:32:05.489Z,22.27
2018-04-12T20:34:32.964Z,21.67
2018-04-12T20:37:00.449Z,22.77
2018-04-12T20:39:28.134Z,23.75
2018-04-12T20:41:55.817Z,23.42
2018-04-12T20:44:24.133Z,21.92
2018-04-12T20:46:51.600Z,23.58
2018-04-12T20:49:19.048Z,24.23
2018-04-12T20:51:47.678Z,23.10
2018-04-12T20:54:15.431Z,22.73
2018-04-12T20:56:43.684Z,21.87
2018-04-12T20:59:11.178Z,23.27
2018-04-12T21:01:38.650Z,22.65
2018-04-12T21:04:06.176Z,25.37
2018-04-12T21:06:33.973Z,26.23
2018-04-12T21:09:01.457Z,24.15
2018-04-12T21:11:28.945Z,25.52
2018-04-12T21:13:56.404Z,22.62
2018-04-12T21:16:23.857Z,24.27
2018-04-12T21:18:52.207Z,23.52
2018-04-12T21:21:19.679Z,22.77
2018-04-12T21:23:47.148Z,24.35
2018-04-12T21:26:14.601Z,23.87
2018-04-12T21:28:42.059Z,24.20
2018-04-12T21:31:09.524Z,23.00
2018-04-12T21:33:37.045Z,25.50
2018-04-12T21:36:04.504Z,23.92
2018-04-12T21:38:31.964Z,26.17
2018-04-12T21:40:59.436Z,26.02
2018-04-12T21:43:26.911Z,26.62
2018-04-12T21:45:54.410Z,22.60
2018-04-12T21:48:21.871Z,24.25
2018-04-12T21:50:49.360Z,23.00
2018-04-12T21:53:16.832Z,25.50
2018-04-12T21:55:44.383Z,23.25
2018-04-12T21:58:11.845Z,25.65
2018-04-12T22:00:39.309Z,24.33
2018-04-12T22:03:06.776Z,21.90
2018-04-12T22:05:34.246Z,24.58
2018-04-12T22:08:02.472Z,24.23
2018-04-12T22:10:29.995Z,24.52
2018-04-12T22:12:57.443Z,23.35
2018-04-12T22:15:24.898Z,24.40
2018-04-12T22:17:53.152Z,23.70
2018-04-12T22:20:20.608Z,23.55
2018-04-12T22:22:48.073Z,23.30
2018-04-12T22:25:15.554Z,25.08
2018-04-12T22:27:43.036Z,24.95
2018-04-12T22:30:10.508Z,25.15
2018-04-12T22:32:37.974Z,24.98
2018-04-12T22:35:05.443Z,23.30
2018-04-12T22:37:32.900Z,23.98
2018-04-12T22:40:00.394Z,22.62
2018-04-12T22:42:27.852Z,22.70
2018-04-12T22:44:55.321Z,21.80
2018-04-12T22:47:22.778Z,24.33
2018-04-12T22:49:50.235Z,26.25
2018-04-12T22:52:18.449Z,25.58
2018-04-12T22:54:45.900Z,23.48
2018-04-12T22:57:13.362Z,23.25
2018-04-12T22:59:40.831Z,26.27
2018-04-12T23:02:08.319Z,23.85
2018-04-12T23:04:36.557Z,25.65
2018-04-12T23:07:04.029Z,22.75
2018-04-12T23:09:32.258Z,26.70
2018-04-12T23:11:59.712Z,23.15
2018-04-12T23:14:27.174Z,22.75
2018-04-12T23:16:54.641Z,24.35
2018-04-12T23:19:22.108Z,24.92
2018-04-12T23:21:49.577Z,25.08
2018-04-12T23:24:17.049Z,24.75
2018-04-12T23:26:45.276Z,24.08
2018-04-12T23:29:12.736Z,24.52
2018-04-12T23:31:40.188Z,26.25
2018-04-12T23:34:07.678Z,26.15
2018-04-12T23:36:35.152Z,25.12
2018-04-12T23:39:02.605Z,25.85
2018-04-12T23:41:30.062Z,24.20
2018-04-12T23:43:57.508Z,25.23
2018-04-12T23:46:24.976Z,26.40
2018-04-12T23:48:53.446Z,23.92
2018-04-12T23:51:20.934Z,23.85
2018-04-12T23:53:48.479Z,25.25
2018-04-12T23:56:16.779Z,26.62
2018-04-12T23:58:44.709Z,26.62
